Terminal Aerodrome Forecast
Issued by NWS Nashville, TN

Home | Current Version | Previous Version | Text Only | Print | Product List | Glossary On
Versions: 1 2 3 4 5 6 7 8 9 10 11 12 13 14 15 16 17 18 19 20 21 22 23 24 25 26
000
FTUS44 KOHX 191306 AAA
TAFCSV
TAF AMD
KCSV 191306Z 1913/2012 17011G22KT 6SM BR OVC003
     FM191500 18011G22KT P6SM BKN011 BKN080 BKN250
     FM192000 18011G22KT P6SM BKN025 BKN250
     FM200300 18008KT P6SM OVC050
     FM200600 18008KT P6SM OVC025
     FM200900 18008KT 4SM BR OVC004=

USA.gov is the U.S. government's official web portal to all federal, state and local government web resources and services.